Portada
METAR-TAF:

METAR-TAF

Aeroports :

Aeroport Internacional de Dubai

Dubai, Emirats Àrabs Units

latitud: 25-15-10N, longitud: 055-21-52E, altitud: 8 m

Observació

L'informe es va fer fa 1 hora i 4 minuts, a les 09:00 UTC
Vent 9 kt del Oest, variant entre Oest/Sud-Oest i Nord-Oest
Temperatura 39°C
Humitat 26%
Pressió 1002 hPa
Visibilitat: 8000 m

METAR: OMDB 030900Z 28009KT 240V310 8000 NSC 39/16 Q1002 NOSIG

Hora: 14:04 (10:04 UTC)

Pronòstic

L'informe es va fer fa 5 hores i 7 minuts, a les 04:57 UTC
Pronòstic vàlid del 03 a les 06 UTC al 04 a les 12 UTC
Vent 12 kt del Oest/Nord-Oest
Visibilitat: 8000 m
Evolucionant progressivament
l' 03 a les 16 UTC al 03 a les 18 UTC
Vent 5 kt del Sud/Sud-Oest
Evolucionant progressivament
l' 04 a les 05 UTC al 04 a les 07 UTC
Vent 10 kt del Oest/Nord-Oest

TAF: OMDB 030457Z 0306/0412 29012KT 8000 NSC BECMG 0316/0318 20005KT BECMG 0405/0407 29010KT

Observacions i pronòstics meteorològics de més de 4000 aeroports (METAR i TAF).

Les estacions disponibles són els punts grocs i vermells al mapa.

Posi el ratolí al punt desitjat per veure el nom de l'estació.

Feu clic per veure les observacions i els pronòstics meteorològics.

Per canviar el mapa: feu clic els botons verds amb una creu de color negre per apropar; al botó verd amb un guió per allunyar la imatge; o en les fletxes verdes per a mapes adjacents.


METAR-TAF: